Time;durP1;ratioP1;P1;durP2;ratioP2;P2;SDS_P1;SDS_P2;PMS_P1;PMS_P2;Temp;Humidity;BMP_temperature;BMP_pressure;BME280_temperature;BME280_humidity;BME280_pressure;Samples;Min_cycle;Max_cycle;Signal;HPM_P1;HPM_P2
2022/07/22 00:00:12;;;;;;;7.95;2.67;;;;;;;;;;5049593;28;20182;-69
2022/07/22 00:02:38;;;;;;;7.22;2.75;;;;;;;;;;5058624;28;20188;-71
2022/07/22 00:05:04;;;;;;;9.27;2.80;;;;;;;;;;5051416;28;20569;-70
2022/07/22 00:07:29;;;;;;;10.60;3.00;;;;;;;;;;5063711;28;20259;-68
2022/07/22 00:09:55;;;;;;;8.30;2.70;;;;;;;;;;5056709;28;20525;-71
2022/07/22 00:12:20;;;;;;;8.82;3.05;;;;;;;;;;5053037;28;20219;-70
2022/07/22 00:14:45;;;;;;;7.78;2.47;;;;;;;;;;5059852;28;20199;-70
2022/07/22 00:17:11;;;;;;;4.18;2.55;;;;;;;;;;5054909;28;20181;-71
2022/07/22 00:19:37;;;;;;;10.98;3.72;;;;;;;;;;5050539;28;20251;-70
2022/07/22 00:22:02;;;;;;;10.38;2.67;;;;;;;;;;5053955;28;20661;-70
2022/07/22 00:24:28;;;;;;;8.75;2.80;;;;;;;;;;5055799;28;20237;-70
2022/07/22 00:26:53;;;;;;;7.30;2.45;;;;;;;;;;5050935;28;20399;-70
2022/07/22 00:29:18;;;;;;;7.05;2.70;;;;;;;;;;5052688;28;20620;-70
2022/07/22 00:31:44;;;;;;;8.88;2.75;;;;;;;;;;5057209;28;20671;-70
2022/07/22 00:34:09;;;;;;;7.63;2.50;;;;;;;;;;5050644;28;20637;-70
2022/07/22 00:36:34;;;;;;;10.15;2.65;;;;;;;;;;5053804;28;20532;-70
2022/07/22 00:39:00;;;;;;;10.50;2.88;;;;;;;;;;5052942;28;20174;-71
2022/07/22 00:41:25;;;;;;;12.45;2.65;;;;;;;;;;5048623;28;20199;-70
2022/07/22 00:43:58;;;;;;;7.50;2.47;;;;;;;;;;5049304;28;20248;-70
2022/07/22 00:46:24;;;;;;;9.27;2.65;;;;;;;;;;5052245;28;20242;-70
2022/07/22 00:48:50;;;;;;;9.02;2.75;;;;;;;;;;5050619;28;20184;-70
2022/07/22 00:51:18;;;;;;;5.68;2.47;;;;;;;;;;5057573;28;20539;-70
2022/07/22 00:53:43;;;;;;;6.32;3.05;;;;;;;;;;5051067;28;20196;-70
2022/07/22 00:56:09;;;;;;;8.90;2.70;;;;;;;;;;5049179;28;20185;-70
2022/07/22 00:58:35;;;;;;;9.35;3.15;;;;;;;;;;5048997;28;20560;-70
2022/07/22 01:01:00;;;;;;;14.25;3.08;;;;;;;;;;5049512;28;20189;-71
2022/07/22 01:03:26;;;;;;;6.45;3.30;;;;;;;;;;5055167;28;20209;-72
2022/07/22 01:05:51;;;;;;;11.63;3.65;;;;;;;;;;5052143;28;20211;-71
2022/07/22 01:08:17;;;;;;;11.27;2.92;;;;;;;;;;5046738;28;20657;-71
2022/07/22 01:10:42;;;;;;;13.18;3.17;;;;;;;;;;5052747;28;20181;-71
2022/07/22 01:13:08;;;;;;;12.85;3.28;;;;;;;;;;5056318;28;20180;-70
2022/07/22 01:15:33;;;;;;;9.88;3.08;;;;;;;;;;5062846;28;20205;-70
2022/07/22 01:17:59;;;;;;;11.70;3.22;;;;;;;;;;5048390;28;20236;-71
2022/07/22 01:20:25;;;;;;;7.97;2.65;;;;;;;;;;5056260;28;20184;-71
2022/07/22 01:22:51;;;;;;;8.02;2.83;;;;;;;;;;5066175;28;20686;-71
2022/07/22 01:25:16;;;;;;;9.93;3.25;;;;;;;;;;5050219;28;20209;-71
2022/07/22 01:27:42;;;;;;;10.90;2.88;;;;;;;;;;5051473;28;20617;-71
2022/07/22 01:30:08;;;;;;;9.55;2.85;;;;;;;;;;5059705;28;20196;-71
2022/07/22 01:32:33;;;;;;;9.10;2.70;;;;;;;;;;5058562;28;20205;-71
2022/07/22 01:34:59;;;;;;;10.23;3.03;;;;;;;;;;5058427;28;20286;-72
2022/07/22 01:37:24;;;;;;;9.20;3.03;;;;;;;;;;5048831;28;20215;-71
2022/07/22 01:39:50;;;;;;;11.25;2.80;;;;;;;;;;5056538;28;20217;-71
2022/07/22 01:42:15;;;;;;;11.15;2.97;;;;;;;;;;5058744;28;20177;-70
2022/07/22 01:44:41;;;;;;;10.13;2.90;;;;;;;;;;5061519;28;20684;-71
2022/07/22 01:47:07;;;;;;;10.25;2.92;;;;;;;;;;5053603;28;20193;-71
2022/07/22 01:49:34;;;;;;;11.52;3.30;;;;;;;;;;5053838;28;20192;-70
2022/07/22 01:52:00;;;;;;;14.65;2.72;;;;;;;;;;5058338;28;20696;-71
2022/07/22 01:54:25;;;;;;;11.40;2.80;;;;;;;;;;5058575;28;20260;-71
2022/07/22 01:56:50;;;;;;;12.75;3.20;;;;;;;;;;5061264;28;20180;-70
2022/07/22 01:59:16;;;;;;;8.15;2.47;;;;;;;;;;5057695;28;20173;-71
2022/07/22 02:01:41;;;;;;;11.23;2.92;;;;;;;;;;5058468;28;20189;-71
2022/07/22 02:04:07;;;;;;;11.02;2.72;;;;;;;;;;5051524;28;20603;-71
2022/07/22 02:06:32;;;;;;;9.95;3.10;;;;;;;;;;5054950;28;20383;-71
2022/07/22 02:08:58;;;;;;;9.50;2.70;;;;;;;;;;5052156;28;20174;-70
2022/07/22 02:11:24;;;;;;;10.95;2.70;;;;;;;;;;5059149;28;20264;-71
2022/07/22 02:13:49;;;;;;;10.60;3.00;;;;;;;;;;5047880;28;20276;-70
2022/07/22 02:16:14;;;;;;;7.63;2.80;;;;;;;;;;5048904;28;20177;-70
2022/07/22 02:18:40;;;;;;;12.60;3.10;;;;;;;;;;5056510;28;20262;-70
2022/07/22 02:21:05;;;;;;;8.18;3.08;;;;;;;;;;5052638;28;20200;-72
2022/07/22 02:23:30;;;;;;;16.05;3.17;;;;;;;;;;5055502;28;20972;-71
2022/07/22 02:25:56;;;;;;;10.73;3.15;;;;;;;;;;5055096;28;20580;-71
2022/07/22 02:28:21;;;;;;;9.30;3.03;;;;;;;;;;5050150;28;20497;-70
2022/07/22 02:30:46;;;;;;;9.43;3.58;;;;;;;;;;5052004;28;20634;-70
2022/07/22 02:33:12;;;;;;;14.55;3.28;;;;;;;;;;5060003;28;20559;-70
2022/07/22 02:35:37;;;;;;;12.32;4.47;;;;;;;;;;5053290;28;20231;-70
2022/07/22 02:38:04;;;;;;;8.73;3.60;;;;;;;;;;5056837;28;20340;-69
2022/07/22 02:40:29;;;;;;;11.23;3.38;;;;;;;;;;5056642;28;20208;-71
2022/07/22 02:42:55;;;;;;;8.60;3.40;;;;;;;;;;5051720;28;20228;-70
2022/07/22 02:45:20;;;;;;;11.52;3.65;;;;;;;;;;5058416;28;20284;-70
2022/07/22 02:47:54;;;;;;;8.35;3.05;;;;;;;;;;5059014;28;20185;-70
2022/07/22 02:50:20;;;;;;;6.28;2.40;;;;;;;;;;5052389;28;20625;-70
2022/07/22 02:52:45;;;;;;;9.52;2.90;;;;;;;;;;5060923;28;20180;-70
2022/07/22 02:55:11;;;;;;;10.98;2.67;;;;;;;;;;5055788;28;20181;-70
2022/07/22 02:57:36;;;;;;;8.40;2.70;;;;;;;;;;5053220;28;20282;-70
2022/07/22 03:00:03;;;;;;;9.07;2.58;;;;;;;;;;5052113;28;20205;-70
2022/07/22 03:02:29;;;;;;;7.15;2.63;;;;;;;;;;5053843;28;20257;-70
2022/07/22 03:04:54;;;;;;;9.70;2.60;;;;;;;;;;5053380;28;20707;-73
2022/07/22 03:07:19;;;;;;;9.23;2.67;;;;;;;;;;5058707;28;20173;-70
2022/07/22 03:09:45;;;;;;;11.85;3.00;;;;;;;;;;5056416;28;20251;-70
2022/07/22 03:12:10;;;;;;;8.93;2.85;;;;;;;;;;5054229;28;20181;-70
2022/07/22 03:14:35;;;;;;;10.73;2.50;;;;;;;;;;5056115;28;20173;-70
2022/07/22 03:17:01;;;;;;;8.00;3.20;;;;;;;;;;5061179;28;20279;-70
2022/07/22 03:19:26;;;;;;;9.75;3.65;;;;;;;;;;5058539;28;20711;-70
2022/07/22 03:21:52;;;;;;;12.57;2.80;;;;;;;;;;5058224;28;20593;-70
2022/07/22 03:24:17;;;;;;;10.23;2.90;;;;;;;;;;5051604;28;20370;-70
2022/07/22 03:26:42;;;;;;;8.23;2.72;;;;;;;;;;5059032;28;20641;-70
2022/07/22 03:29:08;;;;;;;10.10;2.42;;;;;;;;;;5053252;28;20605;-69
2022/07/22 03:31:33;;;;;;;8.20;2.55;;;;;;;;;;5056171;28;20292;-70
2022/07/22 03:34:00;;;;;;;7.45;2.92;;;;;;;;;;5061348;28;20188;-70
2022/07/22 03:36:26;;;;;;;8.23;3.15;;;;;;;;;;5061654;28;20177;-70
2022/07/22 03:38:51;;;;;;;13.32;3.25;;;;;;;;;;5056763;28;20235;-70
2022/07/22 03:41:17;;;;;;;8.95;2.95;;;;;;;;;;5047256;28;20213;-70
2022/07/22 03:43:42;;;;;;;9.15;3.00;;;;;;;;;;5048060;28;20220;-70
2022/07/22 03:46:08;;;;;;;11.55;2.88;;;;;;;;;;5045556;28;20569;-70
2022/07/22 03:48:33;;;;;;;8.45;3.17;;;;;;;;;;5055589;28;20569;-72
2022/07/22 03:50:58;;;;;;;7.07;3.22;;;;;;;;;;5061407;28;20213;-70
2022/07/22 03:53:24;;;;;;;12.65;2.78;;;;;;;;;;5061257;28;20178;-70
2022/07/22 03:55:49;;;;;;;13.70;2.97;;;;;;;;;;5052005;28;20188;-70
2022/07/22 03:58:17;;;;;;;8.50;2.60;;;;;;;;;;5065948;28;20176;-71
2022/07/22 04:00:42;;;;;;;7.60;2.80;;;;;;;;;;5056955;28;20190;-71
2022/07/22 04:03:07;;;;;;;6.85;2.30;;;;;;;;;;5056984;28;20185;-70
2022/07/22 04:05:33;;;;;;;8.73;2.70;;;;;;;;;;5056333;28;20208;-70
2022/07/22 04:07:58;;;;;;;11.70;2.67;;;;;;;;;;5058954;28;20408;-70
2022/07/22 04:10:23;;;;;;;7.55;2.90;;;;;;;;;;5051401;28;20181;-70
2022/07/22 04:12:49;;;;;;;10.15;2.08;;;;;;;;;;5052396;28;20189;-71
2022/07/22 04:15:14;;;;;;;8.60;2.30;;;;;;;;;;5046618;28;20186;-70
2022/07/22 04:17:39;;;;;;;8.23;2.72;;;;;;;;;;5064119;28;20181;-70
2022/07/22 04:20:05;;;;;;;9.38;2.38;;;;;;;;;;5063912;28;20208;-70
2022/07/22 04:22:31;;;;;;;5.28;2.28;;;;;;;;;;5049848;28;20193;-70
2022/07/22 04:24:56;;;;;;;8.30;2.45;;;;;;;;;;5057563;28;20726;-70
2022/07/22 04:27:23;;;;;;;4.72;2.22;;;;;;;;;;5051815;28;20275;-70
2022/07/22 04:29:48;;;;;;;7.57;2.40;;;;;;;;;;5063686;28;20193;-70
2022/07/22 04:32:14;;;;;;;8.18;2.55;;;;;;;;;;5046669;28;20208;-70
2022/07/22 04:34:39;;;;;;;7.55;1.90;;;;;;;;;;5060878;28;20208;-70
2022/07/22 04:37:05;;;;;;;8.20;2.70;;;;;;;;;;5059947;28;20196;-70
2022/07/22 04:39:30;;;;;;;8.30;2.88;;;;;;;;;;5064604;28;20193;-70
2022/07/22 04:41:56;;;;;;;7.95;2.30;;;;;;;;;;5057295;28;20498;-70
2022/07/22 04:44:21;;;;;;;11.65;2.38;;;;;;;;;;5053224;28;20284;-70
2022/07/22 04:46:47;;;;;;;11.00;2.38;;;;;;;;;;5049544;28;20221;-71
2022/07/22 04:49:12;;;;;;;8.60;2.67;;;;;;;;;;5051378;28;20582;-70
2022/07/22 04:51:37;;;;;;;7.63;2.03;;;;;;;;;;5060708;28;20615;-71
2022/07/22 04:54:03;;;;;;;7.47;2.60;;;;;;;;;;5046960;28;20240;-70
2022/07/22 04:56:28;;;;;;;8.48;2.20;;;;;;;;;;5060540;28;20193;-70
2022/07/22 04:58:53;;;;;;;6.25;2.22;;;;;;;;;;5047294;28;20659;-70
2022/07/22 05:01:19;;;;;;;4.65;2.10;;;;;;;;;;5047289;28;20252;-70
2022/07/22 05:03:44;;;;;;;8.32;3.08;;;;;;;;;;5060901;28;20235;-70
2022/07/22 05:06:10;;;;;;;5.18;2.17;;;;;;;;;;5063874;28;20185;-71
2022/07/22 05:08:36;;;;;;;8.13;2.13;;;;;;;;;;5059469;28;20193;-70
2022/07/22 05:11:01;;;;;;;6.28;2.22;;;;;;;;;;5053890;28;20261;-70
2022/07/22 05:13:27;;;;;;;8.60;2.13;;;;;;;;;;5046156;28;20448;-70
2022/07/22 05:15:52;;;;;;;8.00;2.33;;;;;;;;;;5048624;28;20227;-70
2022/07/22 05:18:18;;;;;;;6.60;2.00;;;;;;;;;;5047431;28;20521;-71
2022/07/22 05:20:44;;;;;;;4.65;1.88;;;;;;;;;;5051998;28;20250;-70
2022/07/22 05:23:09;;;;;;;5.43;1.35;;;;;;;;;;5058560;28;20307;-70
2022/07/22 05:25:34;;;;;;;5.47;1.70;;;;;;;;;;5067320;28;20201;-71
2022/07/22 05:28:00;;;;;;;6.38;1.48;;;;;;;;;;5063190;28;20185;-70
2022/07/22 05:30:25;;;;;;;6.90;1.75;;;;;;;;;;5062577;28;20184;-70
2022/07/22 05:32:51;;;;;;;6.07;1.52;;;;;;;;;;5061086;28;20204;-71
2022/07/22 05:35:16;;;;;;;7.00;1.60;;;;;;;;;;5059576;28;20186;-69
2022/07/22 05:37:42;;;;;;;5.60;1.33;;;;;;;;;;5051674;28;20637;-69
2022/07/22 05:40:08;;;;;;;8.73;1.80;;;;;;;;;;5050140;28;20177;-69
2022/07/22 05:42:33;;;;;;;2.92;1.30;;;;;;;;;;5057069;28;20186;-69
2022/07/22 05:44:59;;;;;;;3.97;1.63;;;;;;;;;;5053380;28;20197;-69
2022/07/22 05:47:24;;;;;;;5.15;1.70;;;;;;;;;;5054461;28;20182;-69
2022/07/22 05:49:50;;;;;;;6.88;1.20;;;;;;;;;;5053220;28;20705;-70
2022/07/22 05:52:15;;;;;;;7.00;1.20;;;;;;;;;;5051782;28;20189;-69
2022/07/22 05:54:40;;;;;;;8.15;1.95;;;;;;;;;;5052583;28;20181;-69
2022/07/22 05:57:09;;;;;;;4.18;1.50;;;;;;;;;;5059833;28;20205;-68
2022/07/22 05:59:35;;;;;;;3.92;1.30;;;;;;;;;;5061684;28;20259;-69
2022/07/22 06:02:00;;;;;;;6.13;1.80;;;;;;;;;;5060714;28;20188;-70
2022/07/22 06:04:26;;;;;;;5.80;1.40;;;;;;;;;;5054794;28;20205;-69
2022/07/22 06:06:52;;;;;;;9.07;1.75;;;;;;;;;;5062728;28;20542;-69
2022/07/22 06:09:17;;;;;;;4.55;1.80;;;;;;;;;;5049998;28;20189;-68
2022/07/22 06:11:42;;;;;;;6.40;2.40;;;;;;;;;;5051486;28;20216;-69
2022/07/22 06:14:08;;;;;;;5.78;2.65;;;;;;;;;;5050194;28;20667;-69
2022/07/22 06:16:34;;;;;;;5.50;2.08;;;;;;;;;;5052640;28;20703;-69
2022/07/22 06:19:00;;;;;;;6.15;2.10;;;;;;;;;;5054589;28;20641;-69
2022/07/22 06:21:25;;;;;;;10.70;2.53;;;;;;;;;;5057034;28;20181;-69
2022/07/22 06:23:51;;;;;;;7.18;1.98;;;;;;;;;;5052440;28;20311;-69
2022/07/22 06:26:16;;;;;;;9.40;2.17;;;;;;;;;;5048732;28;20185;-69
2022/07/22 06:28:41;;;;;;;7.75;2.13;;;;;;;;;;5056307;28;20201;-70
2022/07/22 06:31:07;;;;;;;7.75;2.20;;;;;;;;;;5062033;28;20196;-69
2022/07/22 06:33:33;;;;;;;8.00;2.25;;;;;;;;;;5056781;28;20235;-70
2022/07/22 06:35:59;;;;;;;7.97;2.03;;;;;;;;;;5062675;28;21420;-70
2022/07/22 06:38:24;;;;;;;7.88;2.20;;;;;;;;;;5063689;28;20452;-70
2022/07/22 06:40:50;;;;;;;6.78;2.33;;;;;;;;;;5061330;28;20375;-70
2022/07/22 06:43:15;;;;;;;4.75;1.77;;;;;;;;;;5047993;28;20188;-70
2022/07/22 06:45:40;;;;;;;4.60;2.00;;;;;;;;;;5059036;28;20565;-70
2022/07/22 06:48:06;;;;;;;12.50;2.40;;;;;;;;;;5065420;28;20268;-70
2022/07/22 06:50:31;;;;;;;5.55;2.10;;;;;;;;;;5053742;28;20216;-69
2022/07/22 06:52:57;;;;;;;10.30;2.30;;;;;;;;;;5047214;28;20235;-69
2022/07/22 06:55:23;;;;;;;5.70;2.30;;;;;;;;;;5054726;28;20176;-70
2022/07/22 06:57:48;;;;;;;6.50;2.13;;;;;;;;;;5055818;28;20190;-69
2022/07/22 07:00:14;;;;;;;7.22;1.90;;;;;;;;;;5049847;28;20206;-69
2022/07/22 07:02:39;;;;;;;7.65;1.88;;;;;;;;;;5049213;28;20646;-70
2022/07/22 07:05:05;;;;;;;5.95;2.10;;;;;;;;;;5052686;28;20205;-69
2022/07/22 07:07:31;;;;;;;4.88;1.27;;;;;;;;;;5050406;28;20196;-68
2022/07/22 07:09:56;;;;;;;6.50;2.00;;;;;;;;;;5056527;28;20181;-68
2022/07/22 07:12:21;;;;;;;6.47;1.98;;;;;;;;;;5053492;28;20221;-69
2022/07/22 07:14:47;;;;;;;3.33;1.52;;;;;;;;;;5055538;28;20366;-68
2022/07/22 07:17:12;;;;;;;6.60;1.75;;;;;;;;;;5052519;28;20195;-69
2022/07/22 07:19:37;;;;;;;7.90;2.00;;;;;;;;;;5049682;28;20272;-69
2022/07/22 07:22:03;;;;;;;4.18;1.75;;;;;;;;;;5052802;28;20180;-70
2022/07/22 07:24:28;;;;;;;4.07;1.75;;;;;;;;;;5048214;28;20248;-69
2022/07/22 07:26:53;;;;;;;6.20;2.03;;;;;;;;;;5051126;28;20181;-69
2022/07/22 07:29:19;;;;;;;6.05;2.22;;;;;;;;;;5054784;28;20181;-69
2022/07/22 07:31:44;;;;;;;4.30;1.60;;;;;;;;;;5048281;28;20213;-69
2022/07/22 07:34:09;;;;;;;5.75;1.85;;;;;;;;;;5050830;28;20180;-68
2022/07/22 07:36:35;;;;;;;4.28;1.77;;;;;;;;;;5053479;28;20204;-68
2022/07/22 07:39:00;;;;;;;4.28;1.70;;;;;;;;;;5053410;28;20460;-68
2022/07/22 07:41:25;;;;;;;5.18;1.92;;;;;;;;;;5051190;28;20241;-69
2022/07/22 07:43:51;;;;;;;6.03;1.88;;;;;;;;;;5056816;28;20673;-68
2022/07/22 07:46:16;;;;;;;4.82;1.85;;;;;;;;;;5049437;28;20995;-68
2022/07/22 07:48:42;;;;;;;5.55;1.83;;;;;;;;;;5054851;28;20193;-70
2022/07/22 07:51:07;;;;;;;7.15;1.83;;;;;;;;;;5053364;28;20185;-69
2022/07/22 07:53:32;;;;;;;4.18;1.85;;;;;;;;;;5054955;28;20190;-70
2022/07/22 07:55:58;;;;;;;4.80;1.75;;;;;;;;;;5056293;28;20188;-69
2022/07/22 07:58:23;;;;;;;7.03;2.17;;;;;;;;;;5049895;28;20274;-69
2022/07/22 08:00:49;;;;;;;8.65;2.35;;;;;;;;;;5053848;28;20527;-69
2022/07/22 08:03:15;;;;;;;4.65;1.80;;;;;;;;;;5051596;28;20185;-69
2022/07/22 08:05:40;;;;;;;4.22;1.50;;;;;;;;;;5056762;28;20197;-68
2022/07/22 08:08:07;;;;;;;5.80;1.75;;;;;;;;;;5058823;28;20173;-68
2022/07/22 08:10:32;;;;;;;5.20;1.25;;;;;;;;;;5051226;28;20181;-68
2022/07/22 08:12:59;;;;;;;3.33;1.33;;;;;;;;;;5053354;28;20746;-69
2022/07/22 08:15:25;;;;;;;4.68;1.30;;;;;;;;;;5056463;28;20483;-68
2022/07/22 08:17:50;;;;;;;4.90;1.73;;;;;;;;;;5057791;28;20260;-68
2022/07/22 08:20:15;;;;;;;4.20;1.80;;;;;;;;;;5053378;28;20184;-69
2022/07/22 08:22:41;;;;;;;3.42;1.17;;;;;;;;;;5053728;28;20181;-67
2022/07/22 08:25:06;;;;;;;3.47;1.88;;;;;;;;;;5051666;28;20216;-68
2022/07/22 08:27:32;;;;;;;2.28;1.42;;;;;;;;;;5052902;28;20220;-68
2022/07/22 08:29:57;;;;;;;7.43;1.40;;;;;;;;;;5054552;28;20207;-68
2022/07/22 08:32:23;;;;;;;5.00;1.52;;;;;;;;;;5063554;28;20287;-68
2022/07/22 08:34:49;;;;;;;4.10;1.10;;;;;;;;;;5051296;28;20260;-68
2022/07/22 08:37:14;;;;;;;8.32;1.17;;;;;;;;;;5051071;28;20609;-67
2022/07/22 08:39:40;;;;;;;2.75;1.00;;;;;;;;;;5050256;28;20189;-67
2022/07/22 08:42:05;;;;;;;4.55;1.20;;;;;;;;;;5055247;28;20536;-69
2022/07/22 08:44:31;;;;;;;2.92;0.90;;;;;;;;;;5057832;28;20296;-68
2022/07/22 08:47:01;;;;;;;2.00;1.20;;;;;;;;;;5054291;28;20223;-68
2022/07/22 08:49:27;;;;;;;3.45;1.38;;;;;;;;;;5053223;28;20649;-68
2022/07/22 08:51:53;;;;;;;2.15;1.00;;;;;;;;;;5053240;28;20540;-69
2022/07/22 08:54:18;;;;;;;3.42;1.00;;;;;;;;;;5052264;28;20567;-70
2022/07/22 08:56:51;;;;;;;5.40;1.38;;;;;;;;;;5058761;28;20173;-68
2022/07/22 08:59:17;;;;;;;1.88;1.00;;;;;;;;;;5060532;28;20267;-71
2022/07/22 09:02:11;;;;;;;4.57;1.23;;;;;;;;;;5060218;28;20264;-68
2022/07/22 09:04:53;;;;;;;4.90;1.05;;;;;;;;;;5057703;28;20276;-68
2022/07/22 09:07:34;;;;;;;4.50;1.33;;;;;;;;;;5061500;28;20525;-69
2022/07/22 09:10:00;;;;;;;2.28;1.20;;;;;;;;;;5059273;28;20633;-69
2022/07/22 09:12:28;;;;;;;3.33;1.33;;;;;;;;;;5059430;28;20672;-70
2022/07/22 09:14:56;;;;;;;3.13;1.27;;;;;;;;;;5055140;28;20574;-69
2022/07/22 09:17:27;;;;;;;2.30;1.20;;;;;;;;;;5059196;28;20180;-68
2022/07/22 09:19:54;;;;;;;7.13;1.30;;;;;;;;;;5063749;28;20193;-70
2022/07/22 09:22:35;;;;;;;6.88;1.17;;;;;;;;;;5062405;28;20271;-69
2022/07/22 09:25:33;;;;;;;2.78;0.88;;;;;;;;;;5057051;28;20645;-70
2022/07/22 09:28:05;;;;;;;6.07;1.08;;;;;;;;;;5057796;28;20189;-71
2022/07/22 09:30:30;;;;;;;3.53;1.17;;;;;;;;;;5056859;28;20252;-69
2022/07/22 09:32:56;;;;;;;4.07;1.20;;;;;;;;;;5058499;28;20343;-69
2022/07/22 09:35:22;;;;;;;4.40;1.00;;;;;;;;;;5063969;28;20191;-69
2022/07/22 09:37:54;;;;;;;2.42;1.00;;;;;;;;;;5057376;28;20189;-69
2022/07/22 09:40:31;;;;;;;5.53;1.45;;;;;;;;;;5053313;28;20242;-69
2022/07/22 09:43:00;;;;;;;5.10;1.13;;;;;;;;;;5055977;28;20274;-69
2022/07/22 09:45:28;;;;;;;3.33;1.52;;;;;;;;;;5061678;28;20189;-69
2022/07/22 09:47:57;;;;;;;3.08;1.10;;;;;;;;;;5057788;28;20598;-68
2022/07/22 09:50:28;;;;;;;3.33;1.00;;;;;;;;;;5058266;28;20669;-69
2022/07/22 09:52:55;;;;;;;4.38;1.10;;;;;;;;;;5056804;28;20193;-69
2022/07/22 09:55:22;;;;;;;4.53;1.10;;;;;;;;;;5055660;28;20192;-69
2022/07/22 09:57:49;;;;;;;3.20;1.35;;;;;;;;;;5060103;28;20677;-67
2022/07/22 10:00:18;;;;;;;5.63;1.42;;;;;;;;;;5049572;28;20243;-68
2022/07/22 10:02:48;;;;;;;4.93;1.40;;;;;;;;;;5053669;28;20189;-69
2022/07/22 10:05:14;;;;;;;4.00;1.30;;;;;;;;;;5049478;28;20309;-70
2022/07/22 10:07:44;;;;;;;5.20;1.63;;;;;;;;;;5065986;28;20187;-69
2022/07/22 10:10:12;;;;;;;3.45;1.17;;;;;;;;;;5059407;28;20181;-68
2022/07/22 10:12:38;;;;;;;5.68;1.38;;;;;;;;;;5060979;28;20193;-68
2022/07/22 10:15:05;;;;;;;5.25;0.88;;;;;;;;;;5049624;28;20188;-68
2022/07/22 10:17:31;;;;;;;2.22;1.27;;;;;;;;;;5051952;28;20189;-69
2022/07/22 10:19:57;;;;;;;3.97;1.15;;;;;;;;;;5052207;28;20633;-69
2022/07/22 10:22:46;;;;;;;4.38;1.20;;;;;;;;;;5058265;28;20189;-69
2022/07/22 10:25:13;;;;;;;5.40;1.40;;;;;;;;;;5053726;28;21254;-69
2022/07/22 10:28:04;;;;;;;2.85;1.20;;;;;;;;;;5050674;28;20192;-68
2022/07/22 10:30:33;;;;;;;3.30;1.20;;;;;;;;;;5056045;28;20185;-69
2022/07/22 10:33:05;;;;;;;3.67;1.10;;;;;;;;;;5056656;28;20205;-69
2022/07/22 10:35:38;;;;;;;4.85;1.50;;;;;;;;;;5057641;28;20177;-68
2022/07/22 10:38:06;;;;;;;6.32;1.38;;;;;;;;;;5050653;28;20255;-69
2022/07/22 10:40:49;;;;;;;3.22;1.60;;;;;;;;;;5052199;28;20216;-68
2022/07/22 10:43:20;;;;;;;3.85;1.40;;;;;;;;;;5049313;28;20189;-69
2022/07/22 10:45:54;;;;;;;8.90;1.48;;;;;;;;;;5054418;28;20208;-68
2022/07/22 10:48:22;;;;;;;5.10;1.38;;;;;;;;;;5054240;28;20220;-69
2022/07/22 10:50:50;;;;;;;7.32;1.40;;;;;;;;;;5047531;28;20192;-69
2022/07/22 10:53:17;;;;;;;7.43;1.80;;;;;;;;;;5050509;28;20227;-68
2022/07/22 10:56:11;;;;;;;6.90;2.13;;;;;;;;;;5046326;28;20182;-70
2022/07/22 10:58:38;;;;;;;2.78;1.33;;;;;;;;;;5051055;28;20189;-69
2022/07/22 11:01:07;;;;;;;5.32;1.45;;;;;;;;;;5052716;28;20625;-69
2022/07/22 11:03:34;;;;;;;3.28;1.58;;;;;;;;;;5047177;28;20387;-69
2022/07/22 11:06:19;;;;;;;3.28;1.27;;;;;;;;;;4356540;28;10000836;-70
2022/07/22 11:08:46;;;;;;;5.60;1.60;;;;;;;;;;5054408;28;20197;-71
2022/07/22 11:11:12;;;;;;;4.18;1.45;;;;;;;;;;5062688;28;20191;-69
2022/07/22 11:13:39;;;;;;;4.78;1.70;;;;;;;;;;5053071;28;20193;-69
2022/07/22 11:16:18;;;;;;;3.17;1.40;;;;;;;;;;5056775;28;20679;-69
2022/07/22 11:18:49;;;;;;;3.08;1.13;;;;;;;;;;5057249;28;20189;-66
2022/07/22 11:21:17;;;;;;;4.75;1.58;;;;;;;;;;5051461;28;20259;-66
2022/07/22 11:23:44;;;;;;;4.03;1.30;;;;;;;;;;5058698;28;20228;-67
2022/07/22 11:26:13;;;;;;;2.65;1.10;;;;;;;;;;5054753;28;20664;-66
2022/07/22 11:28:40;;;;;;;2.83;1.33;;;;;;;;;;5057574;28;20191;-66
2022/07/22 11:31:07;;;;;;;3.17;1.00;;;;;;;;;;5046833;28;20201;-65
2022/07/22 11:33:32;;;;;;;2.30;0.90;;;;;;;;;;5047293;28;20319;-66
2022/07/22 11:36:03;;;;;;;3.35;1.00;;;;;;;;;;5051142;28;20565;-65
2022/07/22 11:38:45;;;;;;;3.45;1.00;;;;;;;;;;5052923;28;20192;-66
2022/07/22 11:41:11;;;;;;;3.03;1.40;;;;;;;;;;5056998;28;20268;-67
2022/07/22 11:43:54;;;;;;;2.25;1.10;;;;;;;;;;5047060;28;20383;-67
2022/07/22 11:46:20;;;;;;;4.47;1.30;;;;;;;;;;5047880;28;20657;-67
2022/07/22 11:48:45;;;;;;;3.95;1.50;;;;;;;;;;5051765;28;20486;-66
2022/07/22 11:51:14;;;;;;;2.67;1.25;;;;;;;;;;5055233;28;20189;-67
2022/07/22 11:53:40;;;;;;;2.33;1.00;;;;;;;;;;5054171;28;20184;-67
2022/07/22 11:56:07;;;;;;;1.90;1.15;;;;;;;;;;5051223;28;20204;-67
2022/07/22 11:58:49;;;;;;;7.35;1.50;;;;;;;;;;5052502;28;20188;-67
2022/07/22 12:01:16;;;;;;;2.63;1.30;;;;;;;;;;5052888;28;20193;-67
2022/07/22 12:03:45;;;;;;;2.67;1.17;;;;;;;;;;5058231;28;20210;-66
2022/07/22 12:06:13;;;;;;;4.82;1.42;;;;;;;;;;5051041;28;20247;-67
2022/07/22 12:08:41;;;;;;;7.50;1.20;;;;;;;;;;5055296;28;20211;-67
2022/07/22 12:11:08;;;;;;;2.88;1.30;;;;;;;;;;5050541;28;20192;-67
2022/07/22 12:13:33;;;;;;;3.17;1.33;;;;;;;;;;5053970;28;20258;-66
2022/07/22 12:15:59;;;;;;;4.30;1.17;;;;;;;;;;5051455;28;20337;-68
2022/07/22 12:18:27;;;;;;;2.38;1.30;;;;;;;;;;5049195;28;20193;-68
2022/07/22 12:20:54;;;;;;;2.08;1.10;;;;;;;;;;5045941;28;20272;-68
2022/07/22 12:23:21;;;;;;;2.85;1.02;;;;;;;;;;5047111;28;20229;-68
2022/07/22 12:25:58;;;;;;;2.92;1.20;;;;;;;;;;5055944;28;20536;-68
2022/07/22 12:28:24;;;;;;;4.95;1.80;;;;;;;;;;5051279;28;20245;-69
2022/07/22 12:30:52;;;;;;;3.03;1.33;;;;;;;;;;5050881;28;20907;-68
2022/07/22 12:33:19;;;;;;;3.30;1.25;;;;;;;;;;5054606;28;20674;-67
2022/07/22 12:35:58;;;;;;;5.57;1.23;;;;;;;;;;5055844;28;20181;-67
2022/07/22 12:38:23;;;;;;;3.00;1.33;;;;;;;;;;5053857;28;22347;-67
2022/07/22 12:40:49;;;;;;;3.60;1.30;;;;;;;;;;5049063;28;20188;-68
2022/07/22 12:43:14;;;;;;;2.50;1.27;;;;;;;;;;5053758;28;20184;-68
2022/07/22 12:45:41;;;;;;;1.92;1.10;;;;;;;;;;5040270;28;20708;-67
2022/07/22 12:48:09;;;;;;;1.90;1.10;;;;;;;;;;5046850;28;20208;-67
2022/07/22 12:50:40;;;;;;;2.90;1.13;;;;;;;;;;5054355;28;20188;-68
2022/07/22 12:53:08;;;;;;;2.00;1.23;;;;;;;;;;5050898;28;20542;-68
2022/07/22 12:55:36;;;;;;;2.70;1.42;;;;;;;;;;5042235;28;20267;-67
2022/07/22 12:58:03;;;;;;;1.88;1.30;;;;;;;;;;5050535;28;20490;-67
2022/07/22 13:00:31;;;;;;;2.40;1.40;;;;;;;;;;5055586;28;20196;-66
2022/07/22 13:02:56;;;;;;;3.88;1.20;;;;;;;;;;5054849;28;20695;-67
2022/07/22 13:05:23;;;;;;;3.58;1.33;;;;;;;;;;5047424;28;20216;-68
2022/07/22 13:07:49;;;;;;;1.60;0.93;;;;;;;;;;5059262;28;20208;-68
2022/07/22 13:10:15;;;;;;;2.25;1.40;;;;;;;;;;4704806;28;10000225;-68
2022/07/22 13:12:41;;;;;;;2.13;1.40;;;;;;;;;;5051776;28;20185;-68
2022/07/22 13:15:07;;;;;;;5.90;1.85;;;;;;;;;;5052796;28;20648;-70
2022/07/22 13:17:33;;;;;;;4.43;1.30;;;;;;;;;;5048152;28;20279;-68
2022/07/22 13:19:58;;;;;;;6.05;1.33;;;;;;;;;;5050872;28;20384;-69
2022/07/22 13:22:24;;;;;;;4.20;1.45;;;;;;;;;;5054966;28;20184;-69
2022/07/22 13:24:49;;;;;;;3.95;1.35;;;;;;;;;;5051125;28;20272;-69
2022/07/22 13:27:15;;;;;;;4.30;1.33;;;;;;;;;;5047697;28;20234;-68
2022/07/22 13:29:40;;;;;;;4.47;1.35;;;;;;;;;;5054492;28;20193;-68
2022/07/22 13:32:06;;;;;;;3.28;1.13;;;;;;;;;;5058597;28;20633;-69
2022/07/22 13:34:31;;;;;;;4.82;1.40;;;;;;;;;;5056153;28;20592;-69
2022/07/22 13:36:57;;;;;;;1.65;1.20;;;;;;;;;;5055600;28;20787;-68
2022/07/22 13:39:23;;;;;;;2.90;1.50;;;;;;;;;;5049982;28;20190;-68
2022/07/22 13:41:48;;;;;;;2.83;1.25;;;;;;;;;;5053490;28;20525;-70
2022/07/22 13:44:13;;;;;;;2.90;1.33;;;;;;;;;;5052823;28;21011;-69
2022/07/22 13:46:39;;;;;;;4.22;1.70;;;;;;;;;;5057988;28;20188;-68
2022/07/22 13:49:04;;;;;;;2.55;1.40;;;;;;;;;;5057607;28;20224;-69
2022/07/22 13:51:30;;;;;;;2.15;1.20;;;;;;;;;;5051392;28;20390;-69
2022/07/22 13:53:56;;;;;;;2.35;1.38;;;;;;;;;;5055704;28;20181;-68
2022/07/22 13:56:21;;;;;;;4.95;1.38;;;;;;;;;;5049182;28;20194;-68
2022/07/22 13:58:47;;;;;;;2.95;1.25;;;;;;;;;;5051476;28;20181;-68
2022/07/22 14:01:12;;;;;;;3.00;1.40;;;;;;;;;;5056747;28;20570;-68
2022/07/22 14:03:38;;;;;;;2.38;1.40;;;;;;;;;;5059776;28;20670;-69
2022/07/22 14:06:04;;;;;;;4.95;1.63;;;;;;;;;;5051650;28;20209;-69
2022/07/22 14:08:30;;;;;;;2.30;1.25;;;;;;;;;;5046930;28;20255;-68
2022/07/22 14:10:56;;;;;;;2.53;1.50;;;;;;;;;;5050683;28;20181;-69
2022/07/22 14:13:21;;;;;;;4.25;1.92;;;;;;;;;;5048696;28;20193;-68
2022/07/22 14:15:47;;;;;;;4.18;1.85;;;;;;;;;;5052812;28;20632;-69
2022/07/22 14:18:12;;;;;;;5.05;1.70;;;;;;;;;;5050251;28;20680;-68
2022/07/22 14:20:38;;;;;;;3.38;1.70;;;;;;;;;;5053930;28;20276;-68
2022/07/22 14:23:05;;;;;;;5.30;1.50;;;;;;;;;;5052393;28;20658;-69
2022/07/22 14:25:30;;;;;;;3.30;1.60;;;;;;;;;;5052241;28;20197;-69
2022/07/22 14:27:56;;;;;;;2.72;1.30;;;;;;;;;;5049623;28;20185;-69
2022/07/22 14:30:21;;;;;;;3.03;1.40;;;;;;;;;;5056764;28;20548;-69
2022/07/22 14:32:47;;;;;;;2.97;1.25;;;;;;;;;;5054228;28;20563;-68
2022/07/22 14:35:12;;;;;;;2.92;1.02;;;;;;;;;;5049107;28;20185;-69
2022/07/22 14:37:38;;;;;;;2.63;1.85;;;;;;;;;;5052890;28;20231;-68